createdAt,value
2022-08-30T00:01:06.543Z,69.69
2022-08-30T00:03:38.556Z,69.30
2022-08-30T00:06:09.601Z,69.90
2022-08-30T00:08:37.130Z,69.92
2022-08-30T00:11:08.390Z,70.32
2022-08-30T00:13:35.920Z,70.58
2022-08-30T00:16:03.744Z,70.36
2022-08-30T00:18:30.689Z,70.45
2022-08-30T00:20:57.682Z,70.63
2022-08-30T00:23:24.826Z,70.33
2022-08-30T00:25:51.719Z,70.20
2022-08-30T00:28:19.209Z,70.06
2022-08-30T00:30:47.080Z,70.37
2022-08-30T00:33:14.652Z,70.46
2022-08-30T00:35:43.428Z,70.49
2022-08-30T00:38:12.539Z,70.55
2022-08-30T00:40:44.266Z,70.51
2022-08-30T00:43:19.350Z,70.54
2022-08-30T00:45:47.931Z,70.50
2022-08-30T00:48:14.744Z,70.07
2022-08-30T00:50:58.522Z,69.89
2022-08-30T00:53:31.032Z,70.54
2022-08-30T00:56:00.583Z,69.74
2022-08-30T00:58:30.903Z,69.70
2022-08-30T01:01:00.782Z,69.69
2022-08-30T01:03:28.643Z,69.61
2022-08-30T01:05:56.824Z,69.69
2022-08-30T01:08:24.276Z,70.14
2022-08-30T01:10:53.740Z,70.10
2022-08-30T01:13:22.888Z,70.77
2022-08-30T01:15:50.813Z,70.52
2022-08-30T01:18:20.868Z,70.71
2022-08-30T01:21:00.549Z,70.44
2022-08-30T01:23:28.992Z,70.62
2022-08-30T01:25:57.188Z,70.63
2022-08-30T01:28:26.222Z,70.59
2022-08-30T01:30:54.258Z,70.06
2022-08-30T01:33:22.157Z,70.09
2022-08-30T01:36:04.846Z,70.04
2022-08-30T01:38:45.625Z,70.95
2022-08-30T01:41:24.239Z,71.11
2022-08-30T01:43:56.003Z,71.07
2022-08-30T01:46:26.873Z,70.90
2022-08-30T01:48:56.155Z,71.01
2022-08-30T01:51:26.193Z,70.86
2022-08-30T01:53:53.524Z,70.03
2022-08-30T01:56:23.386Z,70.00
2022-08-30T01:58:50.322Z,69.66
2022-08-30T02:01:20.016Z,69.12
2022-08-30T02:03:47.498Z,68.86
2022-08-30T02:06:19.240Z,69.04
2022-08-30T02:08:46.949Z,68.51
2022-08-30T02:11:15.219Z,68.64
2022-08-30T02:13:43.519Z,68.48
2022-08-30T02:16:13.802Z,68.21
2022-08-30T02:18:40.782Z,68.41
2022-08-30T02:21:09.918Z,68.01
2022-08-30T02:23:36.913Z,68.21
2022-08-30T02:26:04.934Z,68.85
2022-08-30T02:28:31.776Z,69.54
2022-08-30T02:31:00.359Z,69.70
2022-08-30T02:33:27.475Z,70.49
2022-08-30T02:35:54.659Z,70.72
2022-08-30T02:38:21.735Z,70.52
2022-08-30T02:40:48.461Z,70.89
2022-08-30T02:43:16.185Z,70.26
2022-08-30T02:45:46.071Z,70.21
2022-08-30T02:48:13.066Z,70.19
2022-08-30T02:50:45.160Z,69.80
2022-08-30T02:53:16.372Z,70.01
2022-08-30T02:55:43.577Z,70.50
2022-08-30T02:58:11.106Z,70.30
2022-08-30T03:00:38.571Z,69.95
2022-08-30T03:03:07.450Z,69.97
2022-08-30T03:05:34.717Z,69.64
2022-08-30T03:08:04.842Z,69.80
2022-08-30T03:10:31.856Z,68.74
2022-08-30T03:12:59.029Z,69.04
2022-08-30T03:15:26.387Z,68.65
2022-08-30T03:17:54.782Z,68.65
2022-08-30T03:20:22.670Z,68.46
2022-08-30T03:22:49.645Z,68.20
2022-08-30T03:25:16.716Z,67.94
2022-08-30T03:27:43.616Z,68.16
2022-08-30T03:30:11.305Z,68.15
2022-08-30T03:32:38.284Z,68.87
2022-08-30T03:35:06.109Z,68.91
2022-08-30T03:37:33.202Z,68.98
2022-08-30T03:40:00.251Z,68.96
2022-08-30T03:42:27.065Z,68.73
2022-08-30T03:44:54.471Z,68.39
2022-08-30T03:47:21.665Z,68.49
2022-08-30T03:49:48.501Z,68.56
2022-08-30T03:52:15.359Z,68.85
2022-08-30T03:54:43.069Z,68.85
2022-08-30T03:57:11.585Z,68.62
2022-08-30T03:59:47.170Z,69.22
2022-08-30T04:02:14.225Z,68.77
2022-08-30T04:04:41.124Z,69.13
2022-08-30T04:07:07.938Z,68.86
2022-08-30T04:09:34.984Z,68.72
2022-08-30T04:12:01.946Z,69.45
2022-08-30T04:14:28.775Z,69.51
2022-08-30T04:16:55.569Z,69.41
2022-08-30T04:19:22.494Z,70.17
2022-08-30T04:21:49.705Z,70.00
2022-08-30T04:24:16.787Z,70.14
2022-08-30T04:26:44.044Z,70.20
2022-08-30T04:29:12.354Z,70.37
2022-08-30T04:31:39.167Z,69.76
2022-08-30T04:34:06.141Z,69.92
2022-08-30T04:36:32.988Z,70.21
2022-08-30T04:38:59.799Z,70.27
2022-08-30T04:41:26.534Z,71.11
2022-08-30T04:43:53.515Z,71.38
2022-08-30T04:46:20.519Z,71.59
2022-08-30T04:48:47.582Z,71.29
2022-08-30T04:51:16.869Z,71.54
2022-08-30T04:53:44.821Z,70.42
2022-08-30T04:56:16.565Z,70.37
2022-08-30T04:58:48.519Z,70.28
2022-08-30T05:01:20.060Z,70.26
2022-08-30T05:03:48.444Z,70.48
2022-08-30T05:06:15.712Z,70.15
2022-08-30T05:08:45.915Z,70.34
2022-08-30T05:11:13.013Z,70.86
2022-08-30T05:13:39.775Z,71.25
2022-08-30T05:16:08.279Z,71.17
2022-08-30T05:18:36.844Z,71.47
2022-08-30T05:21:14.154Z,71.32
2022-08-30T05:23:42.541Z,70.92
2022-08-30T05:26:18.361Z,70.75
2022-08-30T05:28:45.749Z,70.43
2022-08-30T05:31:20.728Z,69.70
2022-08-30T05:33:48.683Z,68.03
2022-08-30T05:36:16.780Z,68.47
2022-08-30T05:38:43.800Z,69.25
2022-08-30T05:41:11.225Z,69.68
2022-08-30T05:43:39.074Z,70.01
2022-08-30T05:46:11.861Z,70.03
2022-08-30T05:48:39.447Z,68.83
2022-08-30T05:51:11.558Z,68.17
2022-08-30T05:53:40.616Z,66.91
2022-08-30T05:56:11.603Z,66.29
2022-08-30T05:58:39.031Z,65.50
2022-08-30T06:01:06.784Z,63.95
2022-08-30T06:03:34.044Z,63.80
2022-08-30T06:06:01.655Z,63.84
2022-08-30T06:08:28.514Z,63.61
2022-08-30T06:10:55.347Z,63.31
2022-08-30T06:13:22.500Z,63.63
2022-08-30T06:15:52.769Z,63.53
2022-08-30T06:18:28.307Z,64.19
2022-08-30T06:20:55.767Z,65.14
2022-08-30T06:23:22.881Z,65.02
2022-08-30T06:25:49.689Z,64.67
2022-08-30T06:28:17.078Z,64.20
2022-08-30T06:30:44.154Z,64.44
2022-08-30T06:33:11.111Z,64.35
2022-08-30T06:35:42.330Z,63.93
2022-08-30T06:38:23.862Z,63.91
2022-08-30T06:40:51.040Z,64.58
2022-08-30T06:43:25.891Z,65.08
2022-08-30T06:45:52.789Z,65.88
2022-08-30T06:48:19.938Z,65.84
2022-08-30T06:50:53.509Z,65.86
2022-08-30T06:53:20.358Z,66.10
2022-08-30T06:55:57.792Z,65.71
2022-08-30T06:58:25.292Z,66.23
2022-08-30T07:00:52.060Z,65.53
2022-08-30T07:03:19.358Z,66.92
2022-08-30T07:05:48.388Z,67.45
2022-08-30T07:08:16.054Z,67.10
2022-08-30T07:10:42.967Z,65.70
2022-08-30T07:13:10.223Z,64.57
2022-08-30T07:15:40.185Z,64.74
2022-08-30T07:18:25.994Z,63.29
2022-08-30T07:20:52.962Z,63.06
2022-08-30T07:23:20.084Z,62.24
2022-08-30T07:25:46.868Z,62.66
2022-08-30T07:28:14.203Z,61.48
2022-08-30T07:30:42.028Z,59.65
2022-08-30T07:33:09.557Z,58.02
2022-08-30T07:35:37.279Z,57.73
2022-08-30T07:38:04.254Z,58.32
2022-08-30T07:40:31.264Z,57.30
2022-08-30T07:43:02.060Z,56.24
2022-08-30T07:45:28.868Z,56.55
2022-08-30T07:47:57.995Z,56.85
2022-08-30T07:50:25.340Z,55.49
2022-08-30T07:52:52.085Z,56.16
2022-08-30T07:55:19.031Z,54.92
2022-08-30T07:57:45.798Z,55.39
2022-08-30T08:00:13.036Z,54.32
2022-08-30T08:02:40.880Z,54.26
2022-08-30T08:05:09.625Z,53.53
2022-08-30T08:07:36.685Z,55.08
2022-08-30T08:10:04.521Z,53.91
2022-08-30T08:12:31.251Z,53.98
2022-08-30T08:14:58.258Z,54.58
2022-08-30T08:17:24.989Z,53.98
2022-08-30T08:19:52.032Z,54.17
2022-08-30T08:22:21.258Z,54.04
2022-08-30T08:24:49.627Z,55.38
2022-08-30T08:27:17.052Z,56.12
2022-08-30T08:29:44.207Z,57.28
2022-08-30T08:32:10.978Z,56.69
2022-08-30T08:34:37.749Z,55.07
2022-08-30T08:37:04.689Z,54.67
2022-08-30T08:39:31.676Z,54.02
2022-08-30T08:42:28.813Z,53.90
2022-08-30T08:44:58.722Z,54.50
2022-08-30T08:47:53.694Z,54.42
2022-08-30T08:50:23.501Z,54.79
2022-08-30T08:53:36.174Z,55.55
2022-08-30T08:56:12.662Z,56.65
2022-08-30T08:58:49.339Z,55.23
2022-08-30T09:01:18.876Z,55.10
2022-08-30T09:03:47.124Z,54.86
2022-08-30T09:06:45.689Z,55.23
2022-08-30T09:09:13.297Z,53.38
2022-08-30T09:11:42.108Z,55.13
2022-08-30T09:14:19.610Z,51.56
2022-08-30T09:16:49.377Z,51.72
2022-08-30T09:19:36.842Z,52.77
2022-08-30T09:22:07.090Z,52.80
2022-08-30T09:24:51.976Z,54.68
2022-08-30T09:27:49.282Z,53.29
2022-08-30T09:30:28.641Z,52.30
2022-08-30T09:33:20.690Z,53.00
2022-08-30T09:35:49.729Z,53.26
2022-08-30T09:38:23.929Z,51.43
2022-08-30T09:40:53.706Z,51.21
2022-08-30T09:43:27.166Z,51.63
2022-08-30T09:46:01.401Z,51.71
2022-08-30T09:48:30.403Z,52.06
2022-08-30T09:51:00.774Z,53.33
2022-08-30T09:53:34.645Z,52.99
2022-08-30T09:56:30.688Z,53.08
2022-08-30T09:59:32.401Z,52.10
2022-08-30T10:02:13.782Z,52.87
2022-08-30T10:04:44.599Z,52.71
2022-08-30T10:07:18.487Z,52.68
2022-08-30T10:10:30.800Z,52.02
2022-08-30T10:13:23.907Z,53.03
2022-08-30T10:16:25.921Z,51.71
2022-08-30T10:19:01.515Z,50.60
2022-08-30T10:21:41.732Z,51.26
2022-08-30T10:24:20.966Z,52.76
2022-08-30T10:26:54.528Z,53.25
2022-08-30T10:29:31.823Z,51.51
2022-08-30T10:32:19.686Z,52.75
2022-08-30T10:34:56.484Z,52.20
2022-08-30T10:37:28.808Z,51.49
2022-08-30T10:40:25.775Z,51.27
2022-08-30T10:42:54.180Z,52.93
2022-08-30T10:45:22.836Z,53.20
2022-08-30T10:48:17.475Z,52.84
2022-08-30T10:50:52.177Z,53.76
2022-08-30T10:53:28.951Z,54.10
2022-08-30T10:56:21.273Z,54.06
2022-08-30T10:58:49.167Z,55.85
2022-08-30T11:01:46.576Z,54.45
2022-08-30T11:04:30.181Z,54.73
2022-08-30T11:07:15.430Z,54.83
2022-08-30T11:10:16.611Z,56.23
2022-08-30T11:13:24.843Z,54.59
2022-08-30T11:16:16.606Z,54.88
2022-08-30T11:18:52.117Z,54.22
2022-08-30T11:21:19.194Z,54.23
2022-08-30T11:24:07.804Z,57.35
2022-08-30T11:26:46.974Z,54.50
2022-08-30T11:29:34.589Z,54.34
2022-08-30T11:32:13.686Z,53.39
2022-08-30T11:34:46.560Z,53.81
2022-08-30T11:37:35.966Z,53.77
2022-08-30T11:40:26.235Z,53.29
2022-08-30T11:42:55.755Z,52.07
2022-08-30T11:45:25.005Z,53.40
2022-08-30T11:47:56.920Z,52.53
2022-08-30T11:50:49.569Z,53.37
2022-08-30T11:53:25.941Z,53.69
2022-08-30T11:56:13.208Z,53.92
2022-08-30T11:58:59.771Z,53.37
2022-08-30T12:01:49.775Z,54.30
2022-08-30T12:04:20.260Z,54.75
2022-08-30T12:07:00.561Z,53.12
2022-08-30T12:09:30.389Z,52.61
2022-08-30T12:12:02.699Z,53.77
2022-08-30T12:14:54.865Z,53.86
2022-08-30T12:17:47.518Z,52.61
2022-08-30T12:20:44.167Z,53.60
2022-08-30T12:23:23.435Z,55.02
2022-08-30T12:25:51.206Z,56.50
2022-08-30T12:28:22.876Z,56.14
2022-08-30T12:30:50.708Z,55.39
2022-08-30T12:33:36.573Z,56.07
2022-08-30T12:36:16.222Z,55.12
2022-08-30T12:38:45.026Z,56.94
2022-08-30T12:41:19.871Z,56.81
2022-08-30T12:43:52.043Z,56.08
2022-08-30T12:46:22.036Z,56.02
2022-08-30T12:48:49.609Z,56.64
2022-08-30T12:51:41.348Z,56.36
2022-08-30T12:54:13.692Z,55.68
2022-08-30T12:57:14.000Z,56.27
2022-08-30T12:59:54.029Z,56.15
2022-08-30T13:02:23.931Z,57.32
2022-08-30T13:07:45.463Z,56.39
2022-08-30T13:10:20.654Z,56.80
2022-08-30T13:13:06.548Z,58.04
2022-08-30T13:15:36.006Z,58.45
2022-08-30T13:18:29.880Z,59.54
2022-08-30T13:21:32.421Z,59.32
2022-08-30T13:24:03.536Z,59.53
2022-08-30T13:26:34.323Z,59.64
2022-08-30T13:29:05.153Z,60.60
2022-08-30T13:31:38.350Z,59.42
2022-08-30T13:34:05.616Z,59.36
2022-08-30T13:36:36.152Z,57.90
2022-08-30T13:39:05.326Z,57.58
2022-08-30T13:41:34.205Z,56.12
2022-08-30T13:44:13.172Z,55.59
2022-08-30T13:46:52.269Z,55.68
2022-08-30T13:49:43.777Z,55.77
2022-08-30T13:52:22.511Z,55.77
2022-08-30T13:54:59.332Z,54.85
2022-08-30T14:00:19.695Z,56.77
2022-08-30T14:02:54.518Z,56.46
2022-08-30T14:05:48.760Z,56.53
2022-08-30T14:08:48.180Z,55.44
2022-08-30T14:11:19.486Z,56.01
2022-08-30T14:16:38.342Z,55.45
2022-08-30T14:19:07.318Z,56.78
2022-08-30T14:21:34.912Z,57.63
2022-08-30T14:24:02.083Z,56.25
2022-08-30T14:26:38.776Z,56.17
2022-08-30T14:29:11.605Z,57.19
2022-08-30T14:31:40.011Z,57.74
2022-08-30T14:34:10.956Z,56.42
2022-08-30T14:36:40.445Z,57.00
2022-08-30T14:39:12.990Z,55.65
2022-08-30T14:41:47.088Z,57.18
2022-08-30T14:44:15.508Z,57.97
2022-08-30T14:46:43.102Z,55.45
2022-08-30T14:49:12.181Z,56.56
2022-08-30T14:51:39.763Z,57.48
2022-08-30T14:54:07.015Z,58.99
2022-08-30T14:56:38.085Z,56.96
2022-08-30T14:59:05.770Z,56.87
2022-08-30T15:01:37.334Z,58.79
2022-08-30T15:04:07.184Z,55.97
2022-08-30T15:06:36.124Z,54.18
2022-08-30T15:09:05.699Z,57.73
2022-08-30T15:11:33.490Z,57.62
2022-08-30T15:14:01.861Z,57.70
2022-08-30T15:16:31.825Z,57.54
2022-08-30T15:18:59.765Z,59.41
2022-08-30T15:21:31.730Z,58.85
2022-08-30T15:23:59.157Z,57.75
2022-08-30T15:26:28.067Z,59.28
2022-08-30T15:28:55.726Z,58.95
2022-08-30T15:31:29.469Z,59.77
2022-08-30T15:33:56.958Z,60.68
2022-08-30T15:36:24.691Z,61.60
2022-08-30T15:38:59.527Z,59.47
2022-08-30T15:41:28.394Z,61.05
2022-08-30T15:43:57.928Z,60.83
2022-08-30T15:46:32.182Z,59.18
2022-08-30T15:49:04.352Z,59.74
2022-08-30T15:51:41.278Z,60.44
2022-08-30T15:54:13.254Z,61.19
2022-08-30T15:56:41.840Z,60.82
2022-08-30T15:59:09.909Z,62.09
2022-08-30T16:01:38.259Z,62.32
2022-08-30T16:04:05.258Z,61.56
2022-08-30T16:06:35.383Z,62.25
2022-08-30T16:09:03.747Z,61.52
2022-08-30T16:11:31.982Z,61.12
2022-08-30T16:13:59.258Z,61.82
2022-08-30T16:16:26.482Z,62.15
2022-08-30T16:18:55.077Z,62.21
2022-08-30T16:21:26.951Z,62.29
2022-08-30T16:23:57.296Z,60.53
2022-08-30T16:26:26.519Z,60.76
2022-08-30T16:28:53.906Z,61.42
2022-08-30T16:31:21.576Z,60.22
2022-08-30T16:33:52.824Z,62.15
2022-08-30T16:36:22.637Z,61.78
2022-08-30T16:38:53.506Z,61.08
2022-08-30T16:41:23.700Z,62.18
2022-08-30T16:43:53.231Z,61.28
2022-08-30T16:46:23.254Z,62.14
2022-08-30T16:48:52.051Z,60.98
2022-08-30T16:51:22.379Z,61.06
2022-08-30T16:53:49.697Z,62.06
2022-08-30T16:56:20.240Z,60.79
2022-08-30T16:58:48.398Z,61.07
2022-08-30T17:01:20.951Z,61.34
2022-08-30T17:03:51.180Z,61.94
2022-08-30T17:06:20.675Z,61.64
2022-08-30T17:08:55.862Z,61.89
2022-08-30T17:11:23.637Z,62.39
2022-08-30T17:13:50.856Z,62.21
2022-08-30T17:16:27.301Z,62.74
2022-08-30T17:18:59.726Z,62.71
2022-08-30T17:21:29.074Z,63.03
2022-08-30T17:23:58.554Z,63.24
2022-08-30T17:26:31.108Z,63.28
2022-08-30T17:28:58.225Z,64.12
2022-08-30T17:31:27.797Z,63.88
2022-08-30T17:34:03.035Z,63.60
2022-08-30T17:36:32.799Z,63.82
2022-08-30T17:39:09.389Z,64.69
2022-08-30T17:41:45.651Z,64.21
2022-08-30T17:44:18.839Z,65.18
2022-08-30T17:46:45.843Z,65.26
2022-08-30T17:49:13.152Z,65.55
2022-08-30T17:51:42.442Z,65.28
2022-08-30T17:54:12.063Z,65.31
2022-08-30T17:56:42.076Z,65.86
2022-08-30T17:59:14.407Z,65.28
2022-08-30T18:01:42.709Z,63.90
2022-08-30T18:04:10.795Z,63.77
2022-08-30T18:06:37.845Z,63.98
2022-08-30T18:09:08.178Z,63.93
2022-08-30T18:11:36.804Z,62.32
2022-08-30T18:14:04.610Z,61.82
2022-08-30T18:16:36.846Z,61.65
2022-08-30T18:19:04.996Z,61.37
2022-08-30T18:21:37.654Z,62.14
2022-08-30T18:24:05.851Z,61.53
2022-08-30T18:26:32.992Z,61.86
2022-08-30T18:29:00.635Z,62.43
2022-08-30T18:31:27.403Z,62.20
2022-08-30T18:33:55.295Z,62.87
2022-08-30T18:36:23.603Z,63.63
2022-08-30T18:38:50.479Z,63.33
2022-08-30T18:41:17.264Z,62.84
2022-08-30T18:43:44.711Z,63.48
2022-08-30T18:46:14.745Z,62.42
2022-08-30T18:48:43.219Z,62.41
2022-08-30T18:51:16.158Z,62.74
2022-08-30T18:53:44.896Z,62.83
2022-08-30T18:56:12.057Z,63.18
2022-08-30T18:58:44.504Z,61.97
2022-08-30T19:01:12.701Z,62.53
2022-08-30T19:03:40.145Z,63.43
2022-08-30T19:06:11.360Z,63.54
2022-08-30T19:08:40.164Z,63.14
2022-08-30T19:11:08.865Z,62.63
2022-08-30T19:13:36.900Z,62.58
2022-08-30T19:16:05.669Z,62.75
2022-08-30T19:18:32.688Z,62.11
2022-08-30T19:20:59.921Z,62.50
2022-08-30T19:23:33.047Z,62.04
2022-08-30T19:26:00.996Z,61.65
2022-08-30T19:28:28.412Z,62.19
2022-08-30T19:30:55.397Z,62.18
2022-08-30T19:33:22.138Z,61.96
2022-08-30T19:35:51.311Z,62.30
2022-08-30T19:38:18.537Z,62.55
2022-08-30T19:40:45.452Z,62.94
2022-08-30T19:43:12.443Z,62.45
2022-08-30T19:45:39.410Z,62.93
2022-08-30T19:48:06.635Z,62.78
2022-08-30T19:50:33.515Z,63.41
2022-08-30T19:53:00.327Z,63.24
2022-08-30T19:55:28.751Z,63.68
2022-08-30T19:57:57.570Z,63.54
2022-08-30T20:00:24.476Z,63.81
2022-08-30T20:02:51.282Z,63.83
2022-08-30T20:05:19.367Z,64.13
2022-08-30T20:07:51.177Z,64.06
2022-08-30T20:10:20.579Z,64.53
2022-08-30T20:12:49.860Z,64.37
2022-08-30T20:15:18.258Z,65.16
2022-08-30T20:18:13.474Z,64.82
2022-08-30T20:23:25.591Z,64.56
2022-08-30T20:25:54.603Z,65.36
2022-08-30T20:28:22.482Z,64.89
2022-08-30T20:30:49.723Z,64.67
2022-08-30T20:33:17.619Z,65.08
2022-08-30T20:35:49.109Z,64.96
2022-08-30T20:38:22.559Z,64.60
2022-08-30T20:40:52.062Z,64.91
2022-08-30T20:43:20.868Z,65.27
2022-08-30T20:45:48.253Z,64.50
2022-08-30T20:48:15.694Z,64.74
2022-08-30T20:50:43.257Z,64.57
2022-08-30T20:53:10.688Z,65.35
2022-08-30T20:55:45.160Z,64.70
2022-08-30T20:58:12.075Z,65.20
2022-08-30T21:00:39.244Z,65.53
2022-08-30T21:03:25.507Z,65.41
2022-08-30T21:05:53.409Z,65.61
2022-08-30T21:08:20.275Z,66.04
2022-08-30T21:10:47.935Z,65.49
2022-08-30T21:13:14.972Z,65.83
2022-08-30T21:15:45.898Z,65.87
2022-08-30T21:18:14.290Z,65.83
2022-08-30T21:20:41.732Z,65.21
2022-08-30T21:23:08.947Z,65.18
2022-08-30T21:25:39.308Z,65.26
2022-08-30T21:28:07.123Z,65.80
2022-08-30T21:30:34.781Z,66.24
2022-08-30T21:33:03.797Z,65.49
2022-08-30T21:35:49.085Z,65.95
2022-08-30T21:38:16.080Z,65.12
2022-08-30T21:40:43.583Z,65.31
2022-08-30T21:43:10.836Z,66.42
2022-08-30T21:45:42.473Z,65.98
2022-08-30T21:48:11.359Z,65.30
2022-08-30T21:50:40.025Z,65.87
2022-08-30T21:53:09.957Z,66.12
2022-08-30T21:55:39.659Z,66.01
2022-08-30T21:58:10.565Z,65.45
2022-08-30T22:00:37.276Z,65.60
2022-08-30T22:03:04.610Z,65.43
2022-08-30T22:05:31.434Z,65.17
2022-08-30T22:08:01.160Z,65.71
2022-08-30T22:10:32.424Z,65.20
2022-08-30T22:13:00.377Z,64.76
2022-08-30T22:15:28.049Z,64.81
2022-08-30T22:17:55.052Z,63.84
2022-08-30T22:20:24.585Z,63.96
2022-08-30T22:22:55.334Z,63.78
2022-08-30T22:25:22.815Z,64.10
2022-08-30T22:27:49.636Z,64.03
2022-08-30T22:30:17.715Z,63.53
2022-08-30T22:32:44.524Z,63.88
2022-08-30T22:35:11.606Z,63.06
2022-08-30T22:37:38.347Z,63.42
2022-08-30T22:40:05.585Z,62.52
2022-08-30T22:42:32.439Z,63.38
2022-08-30T22:44:59.356Z,62.73
2022-08-30T22:47:26.358Z,62.75
2022-08-30T22:49:53.266Z,63.13
2022-08-30T22:52:24.239Z,63.01
2022-08-30T22:54:52.525Z,63.22
2022-08-30T22:57:19.884Z,63.23
2022-08-30T22:59:46.768Z,62.74
2022-08-30T23:02:13.533Z,62.89
2022-08-30T23:04:40.353Z,63.88
2022-08-30T23:07:07.092Z,64.25
2022-08-30T23:09:33.991Z,64.28
2022-08-30T23:12:00.768Z,65.09
2022-08-30T23:14:27.615Z,65.39
2022-08-30T23:16:54.802Z,65.16
2022-08-30T23:19:23.666Z,65.05
2022-08-30T23:21:51.117Z,64.62
2022-08-30T23:24:36.632Z,64.54
2022-08-30T23:27:22.798Z,64.59
2022-08-30T23:30:08.292Z,64.54
2022-08-30T23:32:53.802Z,64.55
2022-08-30T23:35:39.030Z,64.50
2022-08-30T23:38:24.844Z,64.65
2022-08-30T23:41:10.837Z,65.07
2022-08-30T23:43:56.561Z,64.92
2022-08-30T23:46:42.205Z,64.53
2022-08-30T23:49:27.531Z,64.35
2022-08-30T23:52:13.381Z,64.26
2022-08-30T23:54:58.798Z,64.72
2022-08-30T23:57:45.121Z,67.27
